Terminal Aerodrome Forecast
Issued by NWS

Home | Current Version | Previous Version | Text Only | Print | Product List | Glossary On
Versions: 1 2 3 4 5 6 7 8 9 10 11 12 13 14 15 16 17 18 19 20
121
FTUS43 KLSX 201730
TAFUIN
TAF
KUIN 201730Z 2018/2118 20012G18KT P6SM FEW050
     FM210200 18006KT P6SM VCTS SCT045CB
     FM210600 18005KT P6SM BKN040
     FM211500 18009KT P6SM SCT250=

USA.gov is the U.S. government's official web portal to all federal, state and local government web resources and services.